Maysville, Indiana
Current Conditions -  °F | °C
As of 12:15 AM on Wednesday 22 Oct 2014 (Local Time) from KDCY Reporting Station
Clear Clear  
Wind Chill: 40°   Ceiling: Unl
Heat Index: 45°   Visibility: 10mi
Dew Point: 43°   Wind: 8mph
Humidity: 94%   Direction: 10°N
Pressure: 30.2"   Gusts: NA
Location:  38.6427°N, 87.1768°W
Report Text: KDCY 220515Z AUTO 01007KT 10SM CLR 07/06 A3020 RMK AO2 T00700061
Loading
Personal Weather Stations






























Interactive Weather Map
Tropical Storm Tracking
New forecast layout! Learn more

10-Day Weather Forecast

Advertisements
Track Severe Weather on mobile